Time;durP1;ratioP1;P1;durP2;ratioP2;P2;SDS_P1;SDS_P2;PMS_P1;PMS_P2;Temp;Humidity;BMP_temperature;BMP_pressure;BME280_temperature;BME280_humidity;BME280_pressure;Samples;Min_cycle;Max_cycle;Signal;HPM_P1;HPM_P2
2024/03/06 00:02:12;;;;;;;6.47;3.35;;;;;;;11.06;82.90;99939.44;5015326;28;20480;-78
2024/03/06 00:05:16;;;;;;;6.55;4.05;;;;;;;11.10;82.99;99940.88;5015621;28;20049;-78
2024/03/06 00:08:20;;;;;;;6.22;3.42;;;;;;;11.16;82.53;99942.13;5015316;28;20480;-77
2024/03/06 00:11:25;;;;;;;10.63;3.65;;;;;;;11.07;82.69;99947.38;5014675;28;20048;-78
2024/03/06 00:14:30;;;;;;;7.22;3.65;;;;;;;10.92;83.55;99943.47;5015174;28;20493;-78
2024/03/06 00:17:34;;;;;;;4.10;2.63;;;;;;;10.98;83.31;99950.09;5015219;28;20057;-78
2024/03/06 00:20:40;;;;;;;5.22;2.30;;;;;;;11.00;83.04;99957.03;5024853;28;20116;-78
2024/03/06 00:23:45;;;;;;;3.47;2.10;;;;;;;10.95;83.18;99955.75;5015078;28;20057;-78
2024/03/06 00:26:50;;;;;;;4.15;2.28;;;;;;;10.95;83.06;99951.25;5013944;28;20053;-79
2024/03/06 00:29:55;;;;;;;4.55;2.28;;;;;;;11.05;82.76;99948.53;4995653;28;20065;-80
2024/03/06 00:32:59;;;;;;;4.95;2.38;;;;;;;11.02;82.86;99943.44;4994543;28;20050;-80
2024/03/06 00:36:04;;;;;;;3.63;1.77;;;;;;;10.96;82.99;99939.50;4983605;28;20400;-79
2024/03/06 00:39:08;;;;;;;2.58;1.63;;;;;;;10.79;83.70;99934.91;4994890;28;20118;-80
2024/03/06 00:42:13;;;;;;;2.65;1.67;;;;;;;11.01;84.19;99942.59;4995087;28;20053;-79
2024/03/06 00:45:18;;;;;;;2.72;1.38;;;;;;;11.17;83.59;99949.16;4995187;28;20061;-79
2024/03/06 00:48:23;;;;;;;2.78;1.60;;;;;;;11.15;84.27;99951.16;4995033;28;20057;-79
2024/03/06 00:51:27;;;;;;;3.50;1.70;;;;;;;10.93;85.02;99949.69;4994688;28;20489;-79
2024/03/06 00:54:31;;;;;;;2.70;1.48;;;;;;;10.62;86.48;99945.53;4994997;28;20054;-78
2024/03/06 00:57:35;;;;;;;2.60;1.30;;;;;;;10.51;87.62;99941.19;4994845;28;20062;-78
2024/03/06 01:00:40;;;;;;;2.60;1.50;;;;;;;10.99;86.11;99949.94;4994819;28;20394;-79
2024/03/06 01:03:44;;;;;;;2.90;1.33;;;;;;;11.13;84.79;99937.03;4993831;28;20524;-79
2024/03/06 01:06:49;;;;;;;4.25;1.50;;;;;;;11.15;85.11;99933.22;4994762;28;20049;-79
2024/03/06 01:09:54;;;;;;;2.30;1.33;;;;;;;11.22;85.00;99920.03;4994900;28;20057;-78
2024/03/06 01:12:58;;;;;;;2.58;1.50;;;;;;;11.19;84.97;99923.84;4982717;28;20057;-78
2024/03/06 01:16:02;;;;;;;2.70;1.58;;;;;;;10.63;87.78;99939.19;4994161;28;20045;-78
2024/03/06 01:19:07;;;;;;;3.20;1.70;;;;;;;10.11;89.83;99940.50;4994564;28;20046;-77
2024/03/06 01:22:14;;;;;;;3.13;2.03;;;;;;;10.11;90.02;99927.09;4993697;28;20057;-78
2024/03/06 01:25:18;;;;;;;3.33;1.50;;;;;;;10.77;87.00;99930.66;4994634;28;20046;-77
2024/03/06 01:28:23;;;;;;;5.63;1.83;;;;;;;10.74;86.12;99939.03;4993700;28;20071;-78
2024/03/06 01:31:27;;;;;;;4.13;1.67;;;;;;;10.37;88.50;99947.84;4994400;28;20053;-78
2024/03/06 01:34:32;;;;;;;3.47;1.40;;;;;;;10.51;87.53;99959.13;4994513;28;20053;-77
2024/03/06 01:37:36;;;;;;;2.35;1.40;;;;;;;10.83;86.44;99957.78;4994409;28;20045;-79
2024/03/06 01:40:45;;;;;;;3.45;1.98;;;;;;;10.92;85.92;99942.63;4994353;28;20389;-78
2024/03/06 01:43:49;;;;;;;2.85;1.67;;;;;;;10.88;85.82;99955.50;4994445;28;20059;-77
2024/03/06 01:46:54;;;;;;;6.47;2.05;;;;;;;10.42;87.29;99968.88;4994351;28;20053;-77
2024/03/06 01:49:59;;;;;;;3.17;1.60;;;;;;;10.88;85.23;99963.56;4994358;28;20386;-78
2024/03/06 01:53:04;;;;;;;5.82;2.00;;;;;;;10.93;84.48;99974.72;4998325;28;20061;-77
2024/03/06 01:56:11;;;;;;;3.33;1.95;;;;;;;10.52;85.90;99976.94;4998242;28;20053;-78
2024/03/06 01:59:18;;;;;;;3.60;2.40;;;;;;;10.61;85.25;99982.28;4998129;28;20057;-77
2024/03/06 02:02:22;;;;;;;5.80;2.30;;;;;;;10.19;85.89;99992.50;4997956;28;20422;-77
2024/03/06 02:05:30;;;;;;;4.50;2.40;;;;;;;10.15;86.53;99980.31;4998048;28;20099;-78
2024/03/06 02:08:34;;;;;;;5.15;2.03;;;;;;;10.26;86.07;99971.31;4997185;28;20053;-78
2024/03/06 02:11:39;;;;;;;4.80;2.50;;;;;;;10.10;86.34;99965.59;4997225;28;20050;-77
2024/03/06 02:14:43;;;;;;;7.53;1.95;;;;;;;10.15;87.03;99956.19;4997133;28;20052;-78
2024/03/06 02:17:48;;;;;;;4.05;1.48;;;;;;;10.25;85.87;99956.19;4997914;28;20053;-77
2024/03/06 02:20:52;;;;;;;5.53;1.80;;;;;;;9.88;86.43;99971.25;4997468;28;20061;-77
2024/03/06 02:23:57;;;;;;;4.78;1.95;;;;;;;9.92;87.37;99956.59;4997822;28;20057;-79
2024/03/06 02:27:01;;;;;;;4.78;1.80;;;;;;;10.23;86.08;99956.34;5002539;28;20048;-79
2024/03/06 02:30:06;;;;;;;4.20;1.50;;;;;;;10.29;85.49;99960.28;5017212;28;20495;-79
2024/03/06 02:33:10;;;;;;;3.08;1.65;;;;;;;10.52;84.58;99958.97;5017141;28;20121;-79
2024/03/06 02:36:16;;;;;;;4.40;1.80;;;;;;;10.76;83.65;99958.53;5016873;28;20065;-79
2024/03/06 02:39:21;;;;;;;3.38;1.55;;;;;;;10.13;85.10;99965.38;5016556;28;20049;-78
2024/03/06 02:42:27;;;;;;;2.20;1.27;;;;;;;10.33;85.62;99957.19;5016770;28;20156;-78
2024/03/06 02:45:31;;;;;;;2.80;1.38;;;;;;;10.61;83.95;99955.44;5016962;28;20041;-79
2024/03/06 02:48:36;;;;;;;3.38;1.40;;;;;;;10.67;83.46;99952.16;5016774;28;20053;-78
2024/03/06 02:51:40;;;;;;;2.80;1.30;;;;;;;10.60;83.13;99956.44;5016523;28;20088;-79
2024/03/06 02:54:45;;;;;;;5.30;2.30;;;;;;;10.50;83.31;99957.44;5016931;28;20061;-78
2024/03/06 02:57:49;;;;;;;2.85;1.40;;;;;;;10.45;83.74;99955.19;5016407;28;20048;-78
2024/03/06 03:00:56;;;;;;;4.07;1.33;;;;;;;10.32;83.60;99955.47;5016648;28;20056;-78
2024/03/06 03:04:00;;;;;;;2.67;1.20;;;;;;;10.20;84.24;99966.50;5004172;28;20045;-77
2024/03/06 03:07:05;;;;;;;3.05;1.48;;;;;;;10.25;84.03;99961.53;5016281;28;20045;-78
2024/03/06 03:10:10;;;;;;;2.80;1.98;;;;;;;10.38;83.51;99954.06;5016307;28;20053;-76
2024/03/06 03:13:14;;;;;;;2.00;1.10;;;;;;;10.10;84.88;99977.19;5016513;28;20050;-78
2024/03/06 03:16:20;;;;;;;2.85;1.20;;;;;;;10.32;84.37;99974.25;5016165;28;20389;-76
2024/03/06 03:19:24;;;;;;;3.70;0.80;;;;;;;10.36;84.01;99964.94;5016350;28;20058;-78
2024/03/06 03:22:28;;;;;;;3.40;1.52;;;;;;;10.38;83.67;99962.09;5015931;28;20056;-76
2024/03/06 03:25:33;;;;;;;2.47;1.10;;;;;;;10.43;83.59;99968.75;5016507;28;20049;-77
2024/03/06 03:28:41;;;;;;;3.03;1.10;;;;;;;10.38;83.23;99986.25;5015369;28;20397;-78
2024/03/06 03:31:46;;;;;;;7.47;1.42;;;;;;;9.87;85.33;99991.88;5016070;28;20389;-77
2024/03/06 03:34:50;;;;;;;2.22;1.08;;;;;;;9.65;86.54;100003.66;5016130;28;20044;-77
2024/03/06 03:37:56;;;;;;;6.25;1.70;;;;;;;10.12;85.36;99996.69;5015763;28;20053;-77
2024/03/06 03:41:00;;;;;;;3.95;1.40;;;;;;;10.63;83.20;99991.03;5003552;28;20053;-78
2024/03/06 03:44:05;;;;;;;3.05;1.20;;;;;;;10.73;82.25;99988.31;5003495;28;20393;-78
2024/03/06 03:47:10;;;;;;;2.65;1.10;;;;;;;10.78;82.39;99989.59;5015872;28;20069;-78
2024/03/06 03:50:14;;;;;;;2.70;1.40;;;;;;;10.69;82.28;99995.00;5015771;28;20049;-78
2024/03/06 03:53:19;;;;;;;2.65;1.30;;;;;;;10.65;82.40;100009.66;5015986;28;20057;-78
2024/03/06 03:56:23;;;;;;;1.83;1.13;;;;;;;10.63;82.07;100007.13;5015614;28;20053;-78
2024/03/06 03:59:27;;;;;;;2.67;1.20;;;;;;;10.77;81.67;99993.25;5015541;28;20069;-77
2024/03/06 04:02:33;;;;;;;2.38;1.30;;;;;;;10.72;81.50;99992.00;5015315;28;20504;-77
2024/03/06 04:05:37;;;;;;;2.10;1.10;;;;;;;10.66;81.19;99990.75;5015493;28;20049;-78
2024/03/06 04:08:41;;;;;;;2.85;1.38;;;;;;;10.51;81.01;99986.81;5015418;28;20577;-77
2024/03/06 04:11:48;;;;;;;2.53;1.35;;;;;;;10.41;81.17;99992.19;5014796;28;20504;-77
2024/03/06 04:14:52;;;;;;;1.98;1.10;;;;;;;10.10;82.58;99998.63;5014600;28;20049;-78
2024/03/06 04:17:56;;;;;;;;;;;;;;;10.01;83.91;100004.00;5014814;28;20377;-78
2024/03/06 04:21:07;;;;;;;2.15;1.20;;;;;;;9.97;83.77;99992.72;5015160;28;19917;-77
2024/03/06 04:24:11;;;;;;;3.33;1.50;;;;;;;10.11;82.65;99988.78;5003055;28;20065;-78
2024/03/06 04:27:16;;;;;;;3.28;1.40;;;;;;;10.05;82.84;99987.50;5014086;28;20056;-77
2024/03/06 04:30:21;;;;;;;4.22;1.60;;;;;;;10.12;82.63;99995.88;5002914;28;20065;-78
2024/03/06 04:33:25;;;;;;;4.18;1.40;;;;;;;10.13;82.82;99995.72;5014947;28;20057;-78
2024/03/06 04:36:33;;;;;;;3.83;1.33;;;;;;;10.28;82.61;99994.31;5014671;28;20060;-77
2024/03/06 04:39:36;;;;;;;3.78;1.35;;;;;;;9.96;82.98;100006.25;5014841;28;20057;-78
2024/03/06 04:42:41;;;;;;;4.18;1.70;;;;;;;9.61;84.46;100023.66;5014686;28;20061;-78
2024/03/06 04:45:45;;;;;;;4.53;1.50;;;;;;;9.40;86.10;100030.09;5014115;28;20057;-78
2024/03/06 04:48:49;;;;;;;5.20;2.10;;;;;;;9.64;84.39;100033.28;5002687;28;20049;-77
2024/03/06 04:51:53;;;;;;;4.88;2.03;;;;;;;9.39;84.64;100034.59;4990949;28;20057;-78
2024/03/06 04:54:58;;;;;;;7.40;2.20;;;;;;;9.63;84.20;100042.28;5014847;28;20060;-77
2024/03/06 04:58:03;;;;;;;4.07;2.10;;;;;;;9.61;84.33;100038.91;5014482;28;20053;-78
2024/03/06 05:01:08;;;;;;;4.85;1.90;;;;;;;9.90;83.56;100042.50;5013611;28;20500;-77
2024/03/06 05:04:12;;;;;;;4.60;2.83;;;;;;;10.04;83.16;100039.44;5014436;28;20049;-77
2024/03/06 05:07:17;;;;;;;3.88;2.10;;;;;;;9.95;82.62;100047.47;5014364;28;20053;-76
2024/03/06 05:10:21;;;;;;;5.55;2.30;;;;;;;9.74;83.24;100040.38;5014344;28;20049;-76
2024/03/06 05:13:26;;;;;;;5.05;2.17;;;;;;;9.93;83.03;100034.19;5014271;28;20049;-78
2024/03/06 05:16:31;;;;;;;3.92;2.20;;;;;;;9.80;82.83;100028.25;5001426;28;20417;-79
2024/03/06 05:19:36;;;;;;;4.95;2.35;;;;;;;9.48;83.79;100032.94;4982616;28;20057;-76
2024/03/06 05:22:40;;;;;;;6.38;2.30;;;;;;;9.53;82.95;100052.16;4994209;28;20061;-75
2024/03/06 05:25:47;;;;;;;4.78;2.15;;;;;;;9.57;83.46;100058.91;4982655;28;20394;-78
2024/03/06 05:28:52;;;;;;;5.15;2.30;;;;;;;9.67;83.27;100049.09;4993835;28;20050;-78
2024/03/06 05:31:56;;;;;;;5.10;2.40;;;;;;;9.66;82.91;100042.88;4982311;28;20069;-78
2024/03/06 05:35:01;;;;;;;3.88;2.35;;;;;;;9.15;84.70;100042.09;4994411;28;20053;-77
2024/03/06 05:38:06;;;;;;;3.80;2.40;;;;;;;9.45;84.29;100054.66;4971089;28;20413;-78
2024/03/06 05:41:11;;;;;;;4.50;2.50;;;;;;;9.37;85.20;100058.00;4994317;28;20053;-78
2024/03/06 05:44:16;;;;;;;5.78;2.90;;;;;;;9.69;83.17;100058.69;4982396;28;20492;-78
2024/03/06 05:47:20;;;;;;;4.28;2.70;;;;;;;9.95;82.17;100067.06;4994333;28;20058;-77
2024/03/06 05:50:25;;;;;;;4.35;2.75;;;;;;;9.79;81.90;100070.28;4982321;28;20058;-78
2024/03/06 05:53:29;;;;;;;3.80;2.40;;;;;;;9.74;82.08;100064.50;5001537;28;20048;-78
2024/03/06 05:56:35;;;;;;;4.63;2.25;;;;;;;9.54;82.34;100064.53;5013765;28;20045;-78
2024/03/06 05:59:40;;;;;;;7.40;2.72;;;;;;;9.55;82.61;100064.44;5001540;28;20109;-78
2024/03/06 06:02:46;;;;;;;4.57;2.67;;;;;;;9.65;82.39;100067.13;5013575;28;20057;-77
2024/03/06 06:05:51;;;;;;;5.70;3.10;;;;;;;9.60;82.58;100059.47;5013696;28;20045;-76
2024/03/06 06:08:56;;;;;;;7.50;2.80;;;;;;;9.61;82.67;100079.09;5013566;28;20049;-76
2024/03/06 06:12:00;;;;;;;7.15;3.03;;;;;;;9.60;82.50;100080.91;5012795;28;20057;-76
2024/03/06 06:15:07;;;;;;;4.55;3.13;;;;;;;9.92;82.27;100085.28;5013398;28;20045;-76
2024/03/06 06:18:11;;;;;;;8.95;3.63;;;;;;;10.64;79.66;100089.34;5013357;28;20377;-76
2024/03/06 06:21:16;;;;;;;6.53;3.20;;;;;;;10.94;78.11;100091.88;5013427;28;20056;-76
2024/03/06 06:24:20;;;;;;;5.47;3.38;;;;;;;11.23;77.42;100096.34;5013076;28;20057;-77
2024/03/06 06:27:25;;;;;;;6.63;3.17;;;;;;;11.99;75.37;100106.00;5013702;28;20492;-79
2024/03/06 06:30:30;;;;;;;4.68;3.00;;;;;;;12.90;71.54;100112.00;5012529;28;20064;-78
2024/03/06 06:33:34;;;;;;;5.28;2.45;;;;;;;13.61;68.78;100107.31;4990295;28;20057;-79
2024/03/06 06:36:40;;;;;;;7.05;2.50;;;;;;;12.76;69.66;100123.34;5013575;28;20053;-79
2024/03/06 06:39:45;;;;;;;6.25;2.95;;;;;;;12.62;69.92;100123.84;5017132;28;20053;-79
2024/03/06 06:42:50;;;;;;;5.45;2.92;;;;;;;12.33;70.39;100118.69;5004927;28;20507;-78
2024/03/06 06:45:54;;;;;;;5.32;2.63;;;;;;;12.87;69.26;100114.16;5017016;28;20114;-77
2024/03/06 06:48:59;;;;;;;7.28;2.92;;;;;;;13.65;66.40;100108.69;5017029;28;20072;-75
2024/03/06 06:52:07;;;;;;;6.05;2.63;;;;;;;12.79;69.94;100106.84;5005260;28;20063;-73
2024/03/06 06:55:11;;;;;;;5.85;3.22;;;;;;;13.31;67.87;100112.31;4992492;28;20382;-74
2024/03/06 06:58:16;;;;;;;5.03;2.78;;;;;;;13.56;67.46;100112.34;4998568;28;20081;-76
2024/03/06 07:01:21;;;;;;;7.82;4.25;;;;;;;13.13;68.99;100125.00;4996887;28;20053;-76
2024/03/06 07:04:27;;;;;;;5.75;3.30;;;;;;;13.18;68.90;100136.16;4996794;28;20047;-76
2024/03/06 07:07:31;;;;;;;6.95;2.88;;;;;;;13.27;68.33;100130.69;4986275;28;20506;-76
2024/03/06 07:10:36;;;;;;;6.65;2.25;;;;;;;13.27;69.69;100130.69;5015885;28;20065;-76
2024/03/06 07:13:41;;;;;;;4.80;2.47;;;;;;;13.44;69.71;100137.03;5015028;28;20056;-78
2024/03/06 07:16:46;;;;;;;3.70;2.15;;;;;;;14.31;68.62;100130.44;5016134;28;20512;-78
2024/03/06 07:19:52;;;;;;;7.70;2.50;;;;;;;14.88;66.13;100126.00;5002637;28;20053;-77
2024/03/06 07:22:57;;;;;;;5.90;3.10;;;;;;;14.91;65.48;100133.75;5015538;28;20061;-77
2024/03/06 07:26:02;;;;;;;5.53;2.15;;;;;;;15.35;63.40;100125.31;5015626;28;20045;-77
2024/03/06 07:29:12;;;;;;;9.52;2.80;;;;;;;16.21;58.78;100124.44;5015925;28;20049;-79
2024/03/06 07:32:18;;;;;;;3.97;2.03;;;;;;;15.87;60.11;100125.75;5015810;28;20056;-80
2024/03/06 07:35:23;;;;;;;3.50;1.77;;;;;;;16.61;58.58;100130.69;5015446;28;20049;-77
2024/03/06 07:38:28;;;;;;;3.42;2.00;;;;;;;16.41;58.84;100142.94;5031893;28;20045;-78
2024/03/06 07:41:33;;;;;;;6.75;2.13;;;;;;;16.05;60.25;100140.72;5020024;28;20053;-77
2024/03/06 07:44:37;;;;;;;3.70;1.83;;;;;;;15.97;61.46;100138.03;5023326;28;20052;-77
2024/03/06 07:47:43;;;;;;;5.13;2.35;;;;;;;15.76;61.67;100143.19;5014022;28;20405;-78
2024/03/06 07:50:48;;;;;;;4.63;1.95;;;;;;;15.83;62.89;100138.75;5022500;28;20048;-79
2024/03/06 07:53:52;;;;;;;5.55;2.10;;;;;;;15.94;61.47;100149.22;5018616;28;20053;-77
2024/03/06 07:56:57;;;;;;;3.50;2.05;;;;;;;16.22;61.29;100165.88;5015107;28;20057;-76
2024/03/06 08:00:14;;;;;;;4.80;2.40;;;;;;;16.85;60.74;100171.19;5009590;28;20044;-80
2024/03/06 08:03:19;;;;;;;2.65;1.52;;;;;;;18.10;55.10;100166.00;5014822;28;20044;-78
2024/03/06 08:06:23;;;;;;;2.30;1.23;;;;;;;18.57;52.62;100169.16;5000140;28;20492;-77
2024/03/06 08:09:28;;;;;;;2.83;1.20;;;;;;;18.30;52.76;100179.84;5012982;28;20049;-80
2024/03/06 08:12:34;;;;;;;3.03;1.15;;;;;;;17.30;55.10;100187.47;5019547;28;20451;-78
2024/03/06 08:15:39;;;;;;;2.35;1.23;;;;;;;17.12;56.28;100186.06;5008962;28;20049;-78
2024/03/06 08:18:44;;;;;;;2.58;1.25;;;;;;;16.78;57.37;100187.31;5012904;28;20049;-78
2024/03/06 08:21:49;;;;;;;2.63;1.17;;;;;;;18.37;54.31;100192.50;5014530;28;20072;-77
2024/03/06 08:24:54;;;;;;;3.47;1.02;;;;;;;20.67;46.47;100206.38;5014460;28;20504;-78
2024/03/06 08:27:59;;;;;;;2.58;1.35;;;;;;;24.51;37.95;100204.56;5014431;28;20522;-77
2024/03/06 08:31:03;;;;;;;2.00;0.90;;;;;;;26.79;31.63;100201.16;5014340;28;20057;-80
2024/03/06 08:34:08;;;;;;;1.65;0.73;;;;;;;28.76;29.88;100207.38;5014282;28;20049;-78
2024/03/06 08:37:13;;;;;;;13.77;1.40;;;;;;;29.43;28.59;100210.66;5002167;28;20511;-80
2024/03/06 08:40:17;;;;;;;1.60;0.80;;;;;;;28.96;28.38;100221.44;5002120;28;20547;-77
2024/03/06 08:43:22;;;;;;;2.60;0.90;;;;;;;27.38;30.23;100221.09;5001837;28;20409;-80
2024/03/06 08:46:27;;;;;;;2.05;0.90;;;;;;;27.29;31.08;100223.41;5014161;28;20049;-78
2024/03/06 08:49:31;;;;;;;2.00;0.80;;;;;;;28.39;29.61;100234.72;5014273;28;20061;-79
2024/03/06 08:52:36;;;;;;;5.72;1.02;;;;;;;27.94;29.66;100234.81;5013943;28;20060;-78
2024/03/06 08:55:41;;;;;;;2.70;1.00;;;;;;;29.05;28.89;100235.63;5013109;28;20053;-78
2024/03/06 08:58:45;;;;;;;3.97;1.27;;;;;;;30.04;27.69;100246.13;5013927;28;20543;-74
2024/03/06 09:01:55;;;;;;;2.17;1.00;;;;;;;30.50;26.97;100241.78;5013652;28;20053;-79
2024/03/06 09:05:00;;;;;;;2.30;1.13;;;;;;;29.80;28.18;100242.03;5013748;28;20049;-78
2024/03/06 09:08:04;;;;;;;2.28;0.93;;;;;;;29.14;28.22;100245.13;5013791;28;20049;-79
2024/03/06 09:11:09;;;;;;;2.63;1.23;;;;;;;29.50;28.09;100253.59;5013741;28;20053;-79
2024/03/06 09:14:14;;;;;;;3.47;0.90;;;;;;;30.67;26.83;100250.75;5013640;28;20056;-78
2024/03/06 09:17:18;;;;;;;2.25;1.40;;;;;;;31.79;25.93;100236.19;5013426;28;20057;-78
2024/03/06 09:20:24;;;;;;;3.08;1.23;;;;;;;28.82;29.07;100251.38;5013560;28;20393;-77
2024/03/06 09:23:30;;;;;;;2.10;1.05;;;;;;;29.65;28.80;100258.47;5013330;28;20056;-77
2024/03/06 09:26:34;;;;;;;2.70;1.23;;;;;;;28.83;28.78;100260.50;5018969;28;20064;-77
2024/03/06 09:29:39;;;;;;;3.25;1.92;;;;;;;27.73;29.52;100254.84;5031713;28;20103;-79
2024/03/06 09:32:44;;;;;;;2.72;1.70;;;;;;;26.12;32.53;100254.94;4997768;28;20069;-77
2024/03/06 09:35:48;;;;;;;3.00;1.90;;;;;;;27.27;30.98;100255.88;4993479;28;20061;-80
2024/03/06 09:38:53;;;;;;;2.78;1.50;;;;;;;26.64;31.65;100257.81;4981709;28;20160;-81
2024/03/06 09:41:59;;;;;;;2.65;1.83;;;;;;;25.52;32.97;100253.38;4993633;28;20058;-77
2024/03/06 09:45:04;;;;;;;3.50;2.10;;;;;;;22.33;38.69;100260.06;4993587;28;20504;-79
2024/03/06 09:48:09;;;;;;;4.78;2.42;;;;;;;21.35;41.71;100257.25;4993693;28;20058;-81
2024/03/06 09:51:14;;;;;;;3.45;2.70;;;;;;;19.66;45.68;100258.72;4993539;28;20496;-79
2024/03/06 09:54:19;;;;;;;4.00;2.70;;;;;;;19.63;45.80;100250.94;4981482;28;20069;-78
2024/03/06 09:57:24;;;;;;;4.80;3.22;;;;;;;19.32;47.05;100267.56;4981122;28;20393;-79
2024/03/06 10:00:32;;;;;;;5.00;2.90;;;;;;;18.26;49.21;100266.34;4993227;28;20137;-77
2024/03/06 10:03:37;;;;;;;3.92;2.78;;;;;;;18.20;51.13;100265.22;4993051;28;20050;-79
2024/03/06 10:06:44;;;;;;;4.82;3.05;;;;;;;18.45;51.57;100262.22;4993758;28;20054;-77
2024/03/06 10:09:49;;;;;;;3.92;2.80;;;;;;;18.33;52.49;100267.28;4992990;28;20045;-76
2024/03/06 10:12:56;;;;;;;4.18;2.38;;;;;;;17.52;55.35;100272.63;4996274;28;20050;-78
2024/03/06 10:16:03;;;;;;;6.60;2.33;;;;;;;16.43;59.01;100269.09;4997140;28;20042;-78
2024/03/06 10:19:18;;;;;;;4.22;2.63;;;;;;;16.51;59.33;100269.06;5014892;28;20073;-79
2024/03/06 10:22:25;;;;;;;4.35;3.00;;;;;;;15.93;60.91;100269.34;5016681;28;20045;-75
2024/03/06 10:25:29;;;;;;;22.40;14.80;;;;;;;16.23;60.79;100275.91;5016618;28;20049;-78
2024/03/06 10:28:34;;;;;;;5.45;3.75;;;;;;;16.69;59.75;100274.28;5016951;28;20393;-78
2024/03/06 10:31:39;;;;;;;3.80;2.70;;;;;;;16.83;58.92;100268.97;5016758;28;20049;-78
2024/03/06 10:34:45;;;;;;;3.70;2.47;;;;;;;17.28;58.20;100273.59;5016502;28;20404;-78
2024/03/06 10:37:50;;;;;;;4.50;2.88;;;;;;;17.55;57.15;100267.66;5016641;28;20068;-78
2024/03/06 10:40:57;;;;;;;4.20;3.00;;;;;;;17.87;56.53;100274.72;5016599;28;20057;-79
2024/03/06 10:44:03;;;;;;;5.75;3.95;;;;;;;17.56;56.94;100279.38;5004501;28;20064;-79
2024/03/06 10:47:10;;;;;;;4.78;3.78;;;;;;;17.68;56.89;100287.97;5004675;28;20110;-78
2024/03/06 10:50:16;;;;;;;7.32;4.30;;;;;;;17.53;56.29;100287.88;5004360;28;20409;-79
2024/03/06 10:53:23;;;;;;;6.18;3.83;;;;;;;17.65;55.53;100297.31;5004260;28;20519;-81
2024/03/06 10:56:27;;;;;;;4.90;3.25;;;;;;;17.51;55.29;100296.19;5016080;28;20076;-78
2024/03/06 10:59:34;;;;;;;4.78;3.35;;;;;;;17.41;56.08;100292.84;5015845;28;20393;-78
2024/03/06 11:02:39;;;;;;;5.10;3.20;;;;;;;17.37;55.82;100294.25;5015968;28;20061;-82
2024/03/06 11:05:50;;;;;;;6.88;4.07;;;;;;;17.35;56.21;100293.59;5011117;28;20037;-78
2024/03/06 11:08:55;;;;;;;7.05;3.90;;;;;;;17.31;56.88;100297.66;5013710;28;20527;-76
2024/03/06 11:12:02;;;;;;;5.13;3.85;;;;;;;17.17;56.99;100300.31;5023468;28;20045;-77
2024/03/06 11:15:10;;;;;;;5.78;3.47;;;;;;;17.30;56.38;100304.13;5013569;28;20056;-78
2024/03/06 11:18:28;;;;;;;6.85;3.67;;;;;;;17.77;53.90;100305.88;5015368;28;20049;-80
2024/03/06 11:21:33;;;;;;;4.30;3.10;;;;;;;18.11;53.23;100300.81;5014409;28;20053;-79
2024/03/06 11:24:38;;;;;;;5.22;2.95;;;;;;;18.15;52.85;100297.53;5014517;28;20045;-78
2024/03/06 11:28:03;;;;;;;6.65;2.95;;;;;;;18.11;52.24;100293.50;5015276;28;20049;-79
2024/03/06 11:31:18;;;;;;;4.10;2.90;;;;;;;18.21;52.05;100295.97;4996027;28;20049;-80
2024/03/06 11:34:24;;;;;;;3.35;2.42;;;;;;;18.11;53.63;100290.78;4994788;28;20157;-79
2024/03/06 11:37:28;;;;;;;5.30;2.33;;;;;;;18.00;54.30;100288.50;4994825;28;20077;-78
2024/03/06 11:40:43;;;;;;;5.13;2.70;;;;;;;17.98;53.47;100301.44;5015125;28;20065;-79
2024/03/06 11:43:50;;;;;;;3.72;2.50;;;;;;;18.06;52.84;100298.66;5003292;28;20052;-79
2024/03/06 11:47:00;;;;;;;3.30;2.30;;;;;;;17.97;52.60;100294.28;5015329;28;20052;-81
2024/03/06 11:50:08;;;;;;;4.15;2.20;;;;;;;18.07;52.96;100294.06;5003584;28;20400;-79
2024/03/06 11:53:14;;;;;;;4.53;2.15;;;;;;;18.00;52.54;100276.78;5015123;28;20061;-79
2024/03/06 11:56:20;;;;;;;3.95;1.92;;;;;;;17.78;51.55;100281.22;5015326;28;20053;-80
2024/03/06 11:59:29;;;;;;;3.40;1.98;;;;;;;17.47;52.86;100285.88;5014757;28;20504;-80
2024/03/06 12:02:36;;;;;;;5.90;2.00;;;;;;;17.64;53.13;100286.63;5014888;28;20053;-80
2024/03/06 12:05:41;;;;;;;3.42;1.90;;;;;;;17.95;52.81;100273.78;4991632;28;20053;-79
2024/03/06 12:08:46;;;;;;;3.38;1.92;;;;;;;18.03;52.44;100277.28;4991641;28;20049;-79
2024/03/06 12:11:50;;;;;;;4.35;2.45;;;;;;;17.92;52.68;100268.75;5014632;28;20073;-77
2024/03/06 12:15:03;;;;;;;4.80;2.22;;;;;;;17.84;53.38;100268.81;5014819;28;20057;-79
2024/03/06 12:18:08;;;;;;;3.58;2.45;;;;;;;17.80;54.17;100270.22;5014963;28;20121;-78
2024/03/06 12:21:16;;;;;;;3.58;2.42;;;;;;;17.48;55.05;100272.09;5014542;28;20049;-79
2024/03/06 12:24:20;;;;;;;3.30;2.38;;;;;;;17.42;55.76;100267.41;5014402;28;20061;-79
2024/03/06 12:27:25;;;;;;;4.40;2.58;;;;;;;17.30;56.42;100268.88;5014306;28;20068;-77
2024/03/06 12:30:39;;;;;;;3.45;2.10;;;;;;;17.08;56.71;100266.13;5013891;28;20057;-78
2024/03/06 12:33:43;;;;;;;3.45;2.00;;;;;;;16.67;56.20;100262.75;5000547;28;20129;-79
2024/03/06 12:36:48;;;;;;;3.53;1.92;;;;;;;16.24;55.87;100258.66;5013991;28;20045;-79
2024/03/06 12:39:52;;;;;;;4.75;1.70;;;;;;;16.30;57.36;100247.09;5013420;28;20056;-78
2024/03/06 12:42:56;;;;;;;2.05;1.33;;;;;;;16.48;56.79;100245.03;5014771;28;20389;-80
2024/03/06 12:46:02;;;;;;;3.55;1.70;;;;;;;16.55;57.71;100256.03;5014843;28;20393;-79
2024/03/06 12:49:07;;;;;;;3.75;2.22;;;;;;;16.55;58.46;100248.75;5002060;28;20065;-79
2024/03/06 12:52:11;;;;;;;6.25;1.52;;;;;;;16.61;56.77;100247.22;5011657;28;20130;-80
2024/03/06 12:55:16;;;;;;;2.83;1.60;;;;;;;16.62;56.95;100244.31;5012079;28;20057;-80
2024/03/06 12:58:21;;;;;;;3.50;1.63;;;;;;;16.50;57.52;100242.97;5011963;28;20053;-79
2024/03/06 13:01:25;;;;;;;4.05;1.80;;;;;;;16.60;57.34;100245.50;5011957;28;20061;-79
2024/03/06 13:04:30;;;;;;;4.30;2.17;;;;;;;16.64;57.03;100238.72;5011758;28;20065;-79
2024/03/06 13:07:36;;;;;;;3.30;1.90;;;;;;;16.60;56.46;100248.22;5013104;28;20100;-78
2024/03/06 13:10:42;;;;;;;5.90;2.45;;;;;;;16.67;54.77;100243.78;5013819;28;20069;-78
2024/03/06 13:13:47;;;;;;;4.38;1.90;;;;;;;16.71;55.65;100239.72;5014409;28;20061;-78
2024/03/06 13:16:52;;;;;;;6.28;3.50;;;;;;;16.91;54.77;100238.25;5014280;28;20065;-78
2024/03/06 13:19:57;;;;;;;3.50;1.75;;;;;;;16.95;54.04;100234.16;5014112;28;20045;-78
2024/03/06 13:23:02;;;;;;;2.75;1.70;;;;;;;17.17;52.01;100227.06;5014019;28;20049;-78
2024/03/06 13:26:07;;;;;;;4.78;1.80;;;;;;;17.09;52.48;100230.66;5013907;28;20381;-78
2024/03/06 13:29:12;;;;;;;3.72;1.80;;;;;;;17.31;52.10;100232.56;5001857;28;20041;-78
2024/03/06 13:32:17;;;;;;;4.75;2.10;;;;;;;17.51;53.50;100236.47;5014027;28;20049;-78
2024/03/06 13:35:23;;;;;;;4.93;2.28;;;;;;;17.19;53.40;100241.28;5013866;28;20401;-79
2024/03/06 13:38:28;;;;;;;3.78;2.10;;;;;;;16.92;54.60;100235.34;5014032;28;20069;-77
2024/03/06 13:41:32;;;;;;;3.78;2.00;;;;;;;17.08;55.04;100231.72;5001932;28;20057;-78
2024/03/06 13:44:37;;;;;;;3.22;1.50;;;;;;;17.10;55.45;100235.09;5013900;28;20065;-77
2024/03/06 13:47:43;;;;;;;3.22;1.50;;;;;;;17.11;55.73;100242.19;5016719;28;20052;-77
2024/03/06 13:50:47;;;;;;;2.42;1.25;;;;;;;17.16;55.42;100252.50;5012029;28;20496;-76
2024/03/06 13:53:52;;;;;;;1.92;0.98;;;;;;;17.33;53.62;100256.81;5023718;28;20049;-76
2024/03/06 13:57:01;;;;;;;2.65;1.10;;;;;;;17.33;52.53;100257.63;5017139;28;20396;-78
2024/03/06 14:00:17;;;;;;;1.77;0.85;;;;;;;17.42;52.71;100245.72;5017107;28;20068;-78
2024/03/06 14:03:22;;;;;;;1.65;0.70;;;;;;;17.53;53.01;100248.00;5017011;28;20113;-77
2024/03/06 14:06:26;;;;;;;1.83;0.80;;;;;;;17.35;52.97;100247.47;5004851;28;20492;-77
2024/03/06 14:09:30;;;;;;;2.05;0.70;;;;;;;17.49;51.32;100252.09;5004997;28;20064;-77
2024/03/06 14:12:35;;;;;;;1.52;0.77;;;;;;;17.34;51.65;100256.63;5020957;28;20400;-78
2024/03/06 14:15:40;;;;;;;1.80;0.70;;;;;;;17.50;51.24;100258.38;5036449;28;20049;-78
2024/03/06 14:18:44;;;;;;;2.05;0.70;;;;;;;17.60;51.67;100253.56;5036435;28;20056;-78
2024/03/06 14:21:49;;;;;;;1.95;0.60;;;;;;;17.59;51.73;100234.75;5036702;28;20060;-78
2024/03/06 14:24:55;;;;;;;2.13;0.73;;;;;;;17.26;51.83;100243.09;5034770;28;20097;-79
2024/03/06 14:27:59;;;;;;;3.90;0.98;;;;;;;17.24;51.87;100237.00;5016465;28;20069;-78